createdAt,value
2023-05-13T00:01:16.524Z,93820.44
2023-05-13T00:03:44.771Z,93818.22
2023-05-13T00:06:12.951Z,93812.00
2023-05-13T00:08:40.248Z,93804.63
2023-05-13T00:11:08.111Z,93808.62
2023-05-13T00:13:35.518Z,93809.75
2023-05-13T00:16:03.757Z,93816.88
2023-05-13T00:18:31.308Z,93825.97
2023-05-13T00:20:58.631Z,93830.91
2023-05-13T00:23:25.851Z,93828.94
2023-05-13T00:25:53.441Z,93827.09
2023-05-13T00:28:21.333Z,93828.72
2023-05-13T00:30:49.333Z,93825.84
2023-05-13T00:33:17.424Z,93825.41
2023-05-13T00:35:44.688Z,93819.19
2023-05-13T00:38:12.007Z,93815.88
2023-05-13T00:40:39.828Z,93812.22
2023-05-13T00:43:07.121Z,93811.34
2023-05-13T00:45:37.166Z,93816.53
2023-05-13T00:48:06.987Z,93801.41
2023-05-13T00:50:34.820Z,93806.63
2023-05-13T00:53:04.162Z,93801.84
2023-05-13T00:55:31.869Z,93801.50
2023-05-13T00:58:01.150Z,93799.97
2023-05-13T01:00:31.924Z,93801.78
2023-05-13T01:03:35.348Z,93799.78
2023-05-13T01:06:08.994Z,93798.41
2023-05-13T01:08:58.321Z,93797.78
2023-05-13T01:11:33.599Z,93802.59
2023-05-13T01:14:26.163Z,93804.03
2023-05-13T01:16:59.449Z,93800.81
2023-05-13T01:19:42.144Z,93802.41
2023-05-13T01:22:09.618Z,93810.06
2023-05-13T01:24:37.285Z,93801.28
2023-05-13T01:27:05.991Z,93800.47
2023-05-13T01:29:34.726Z,93792.03
2023-05-13T01:32:03.599Z,93793.88
2023-05-13T01:34:31.810Z,93800.22
2023-05-13T01:37:00.173Z,93807.47
2023-05-13T01:39:29.060Z,93803.44
2023-05-13T01:41:57.352Z,93786.16
2023-05-13T01:44:25.144Z,93780.78
2023-05-13T01:46:53.833Z,93775.78
2023-05-13T01:49:21.631Z,93779.00
2023-05-13T01:51:48.947Z,93777.81
2023-05-13T01:54:16.618Z,93781.34
2023-05-13T01:56:46.086Z,93787.63
2023-05-13T01:59:13.416Z,93793.22
2023-05-13T02:01:41.306Z,93787.38
2023-05-13T02:04:08.972Z,93777.59
2023-05-13T02:06:36.390Z,93785.03
2023-05-13T02:09:03.749Z,93787.19
2023-05-13T02:11:31.407Z,93793.81
2023-05-13T02:13:59.004Z,93793.59
2023-05-13T02:16:26.314Z,93796.41
2023-05-13T02:18:54.524Z,93792.19
2023-05-13T02:21:27.296Z,93799.00
2023-05-13T02:23:54.584Z,93798.81
2023-05-13T02:26:22.404Z,93802.00
2023-05-13T02:28:50.252Z,93800.81
2023-05-13T02:31:17.541Z,93797.16
2023-05-13T02:33:45.317Z,93805.78
2023-05-13T02:36:13.891Z,93807.56
2023-05-13T02:38:41.969Z,93801.16
2023-05-13T02:41:11.447Z,93796.59
2023-05-13T02:43:40.090Z,93797.72
2023-05-13T02:46:08.905Z,93798.75
2023-05-13T02:48:36.169Z,93797.34
2023-05-13T02:51:03.790Z,93803.38
2023-05-13T02:53:31.034Z,93798.38
2023-05-13T02:55:59.440Z,93796.53
2023-05-13T02:58:27.060Z,93804.53
2023-05-13T03:00:54.559Z,93788.72
2023-05-13T03:03:23.518Z,93793.16
2023-05-13T03:05:52.492Z,93796.34
2023-05-13T03:08:19.900Z,93798.94
2023-05-13T03:10:47.223Z,93804.28
2023-05-13T03:13:15.029Z,93806.66
2023-05-13T03:15:44.360Z,93813.06
2023-05-13T03:18:12.350Z,93809.00
2023-05-13T03:20:40.242Z,93810.84
2023-05-13T03:23:08.251Z,93802.19
2023-05-13T03:25:35.893Z,93807.28
2023-05-13T03:28:04.183Z,93798.69
2023-05-13T03:30:32.131Z,93803.34
2023-05-13T03:33:00.046Z,93801.34
2023-05-13T03:35:27.797Z,93804.97
2023-05-13T03:37:55.845Z,93802.31
2023-05-13T03:40:23.373Z,93806.13
2023-05-13T03:42:51.984Z,93816.09
2023-05-13T03:45:19.958Z,93813.34
2023-05-13T03:47:48.051Z,93823.84
2023-05-13T03:50:16.068Z,93830.97
2023-05-13T03:52:45.528Z,93823.59
2023-05-13T03:55:15.299Z,93819.97
2023-05-13T03:57:48.355Z,93832.63
2023-05-13T04:00:16.642Z,93838.19
2023-05-13T04:02:44.020Z,93838.72
2023-05-13T04:05:13.946Z,93832.19
2023-05-13T04:07:41.593Z,93827.37
2023-05-13T04:10:09.359Z,93834.41
2023-05-13T04:12:37.631Z,93832.34
2023-05-13T04:15:05.371Z,93839.56
2023-05-13T04:17:32.813Z,93844.06
2023-05-13T04:20:00.681Z,93845.78
2023-05-13T04:22:28.949Z,93857.03
2023-05-13T04:24:57.371Z,93854.25
2023-05-13T04:27:25.874Z,93859.03
2023-05-13T04:29:53.625Z,93851.44
2023-05-13T04:32:24.044Z,93857.63
2023-05-13T04:34:53.352Z,93859.78
2023-05-13T04:37:21.135Z,93868.19
2023-05-13T04:39:48.812Z,93867.34
2023-05-13T04:42:17.116Z,93871.56
2023-05-13T04:44:44.455Z,93874.13
2023-05-13T04:47:11.936Z,93882.53
2023-05-13T04:49:39.611Z,93879.41
2023-05-13T04:52:07.350Z,93878.56
2023-05-13T04:54:36.114Z,93888.78
2023-05-13T04:57:03.880Z,93886.63
2023-05-13T04:59:31.514Z,93892.78
2023-05-13T05:01:59.112Z,93880.75
2023-05-13T05:04:27.841Z,93881.63
2023-05-13T05:06:55.589Z,93884.03
2023-05-13T05:09:22.963Z,93881.16
2023-05-13T05:11:51.731Z,93871.78
2023-05-13T05:14:20.454Z,93869.47
2023-05-13T05:16:48.814Z,93866.31
2023-05-13T05:19:16.534Z,93861.69
2023-05-13T05:21:43.892Z,93858.09
2023-05-13T05:24:11.782Z,93858.09
2023-05-13T05:26:41.074Z,93866.81
2023-05-13T05:29:09.984Z,93870.03
2023-05-13T05:31:37.610Z,93868.75
2023-05-13T05:34:05.563Z,93874.47
2023-05-13T05:36:33.676Z,93874.22
2023-05-13T05:39:03.170Z,93869.84
2023-05-13T05:41:31.345Z,93862.12
2023-05-13T05:43:58.812Z,93870.44
2023-05-13T05:46:26.434Z,93865.81
2023-05-13T05:48:55.212Z,93874.41
2023-05-13T05:51:23.063Z,93875.22
2023-05-13T05:53:50.646Z,93877.41
2023-05-13T05:56:18.275Z,93875.59
2023-05-13T05:58:45.814Z,93870.78
2023-05-13T06:01:13.343Z,93870.66
2023-05-13T06:03:41.170Z,93869.50
2023-05-13T06:06:08.765Z,93883.06
2023-05-13T06:08:36.424Z,93879.34
2023-05-13T06:11:04.173Z,93870.66
2023-05-13T06:13:31.588Z,93865.56
2023-05-13T06:15:59.023Z,93870.78
2023-05-13T06:18:26.989Z,93873.03
2023-05-13T06:20:54.355Z,93871.75
2023-05-13T06:23:21.678Z,93870.50
2023-05-13T06:25:52.007Z,93866.63
2023-05-13T06:28:19.588Z,93877.38
2023-05-13T06:30:47.009Z,93880.41
2023-05-13T06:33:14.806Z,93875.16
2023-05-13T06:35:42.245Z,93888.91
2023-05-13T06:38:10.472Z,93877.81
2023-05-13T06:40:39.464Z,93877.72
2023-05-13T06:43:07.032Z,93878.16
2023-05-13T06:45:36.987Z,93875.41
2023-05-13T06:48:04.945Z,93872.78
2023-05-13T06:50:33.016Z,93877.94
2023-05-13T06:53:00.374Z,93871.53
2023-05-13T06:55:28.186Z,93881.19
2023-05-13T06:57:55.747Z,93874.91
2023-05-13T07:00:24.100Z,93868.72
2023-05-13T07:02:53.070Z,93869.72
2023-05-13T07:05:21.276Z,93863.78
2023-05-13T07:07:48.749Z,93872.75
2023-05-13T07:10:16.596Z,93868.19
2023-05-13T07:12:44.081Z,93867.66
2023-05-13T07:15:11.586Z,93866.47
2023-05-13T07:17:40.074Z,93864.44
2023-05-13T07:20:08.976Z,93860.22
2023-05-13T07:22:36.363Z,93849.59
2023-05-13T07:25:04.360Z,93864.50
2023-05-13T07:27:31.831Z,93860.72
2023-05-13T07:29:59.211Z,93866.00
2023-05-13T07:32:26.944Z,93866.31
2023-05-13T07:34:54.435Z,93858.91
2023-05-13T07:37:21.667Z,93867.50
2023-05-13T07:39:49.791Z,93873.81
2023-05-13T07:42:17.107Z,93870.09
2023-05-13T07:44:44.338Z,93866.13
2023-05-13T07:47:13.616Z,93871.03
2023-05-13T07:49:41.230Z,93870.63
2023-05-13T07:52:08.993Z,93864.75
2023-05-13T07:54:37.318Z,93861.44
2023-05-13T07:57:04.822Z,93868.97
2023-05-13T07:59:32.224Z,93863.25
2023-05-13T08:01:59.937Z,93862.91
2023-05-13T08:04:27.953Z,93860.56
2023-05-13T08:06:55.338Z,93867.66
2023-05-13T08:09:22.657Z,93870.09
2023-05-13T08:11:50.457Z,93873.00
2023-05-13T08:14:17.863Z,93866.25
2023-05-13T08:16:45.390Z,93872.84
2023-05-13T08:19:16.505Z,93867.97
2023-05-13T08:21:44.727Z,93866.28
2023-05-13T08:24:12.644Z,93865.50
2023-05-13T08:26:40.362Z,93869.22
2023-05-13T08:29:08.256Z,93865.16
2023-05-13T08:31:35.763Z,93873.25
2023-05-13T08:34:03.387Z,93865.69
2023-05-13T08:36:31.000Z,93860.69
2023-05-13T08:38:58.427Z,93862.34
2023-05-13T08:41:26.970Z,93855.91
2023-05-13T08:43:58.079Z,93843.13
2023-05-13T08:46:28.077Z,93843.19
2023-05-13T08:48:56.214Z,93842.22
2023-05-13T08:51:24.394Z,93836.78
2023-05-13T08:53:53.900Z,93835.47
2023-05-13T08:56:24.546Z,93839.69
2023-05-13T08:58:52.240Z,93830.75
2023-05-13T09:01:19.819Z,93819.63
2023-05-13T09:04:08.808Z,93817.81
2023-05-13T09:06:36.592Z,93812.78
2023-05-13T09:09:05.276Z,93814.88
2023-05-13T09:11:34.137Z,93808.19
2023-05-13T09:14:07.859Z,93814.88
2023-05-13T09:16:36.834Z,93816.75
2023-05-13T09:19:06.627Z,93814.09
2023-05-13T09:21:38.425Z,93822.72
2023-05-13T09:24:11.541Z,93820.69
2023-05-13T09:26:40.687Z,93820.97
2023-05-13T09:29:24.732Z,93816.78
2023-05-13T09:32:00.382Z,93818.53
2023-05-13T09:34:35.318Z,93822.16
2023-05-13T09:37:04.845Z,93831.75
2023-05-13T09:39:34.983Z,93822.56
2023-05-13T09:42:04.663Z,93821.78
2023-05-13T09:44:34.206Z,93816.47
2023-05-13T09:47:02.734Z,93814.00
2023-05-13T09:49:31.964Z,93814.00
2023-05-13T09:51:59.590Z,93801.50
2023-05-13T09:54:29.511Z,93794.34
2023-05-13T09:57:01.734Z,93790.47
2023-05-13T09:59:33.976Z,93796.72
2023-05-13T10:02:05.107Z,93791.81
2023-05-13T10:04:33.280Z,93791.97
2023-05-13T10:07:03.580Z,93788.09
2023-05-13T10:09:38.915Z,93789.13
2023-05-13T10:12:09.061Z,93797.06
2023-05-13T10:14:38.255Z,93798.19
2023-05-13T10:17:06.720Z,93794.44
2023-05-13T10:19:35.431Z,93798.72
2023-05-13T10:22:03.197Z,93797.19
2023-05-13T10:24:30.866Z,93803.66
2023-05-13T10:27:01.992Z,93796.72
2023-05-13T10:29:29.888Z,93798.91
2023-05-13T10:32:00.132Z,93798.34
2023-05-13T10:34:29.321Z,93790.13
2023-05-13T10:37:25.279Z,93792.75
2023-05-13T10:40:12.664Z,93790.91
2023-05-13T10:42:42.907Z,93798.66
2023-05-13T10:45:11.740Z,93799.09
2023-05-13T10:47:39.458Z,93812.37
2023-05-13T10:50:22.551Z,93804.44
2023-05-13T10:52:51.381Z,93820.81
2023-05-13T10:55:21.268Z,93823.22
2023-05-13T10:58:15.263Z,93829.63
2023-05-13T11:00:45.095Z,93822.69
2023-05-13T11:03:15.193Z,93826.41
2023-05-13T11:05:58.701Z,93824.88
2023-05-13T11:08:55.726Z,93824.09
2023-05-13T11:11:31.135Z,93822.19
2023-05-13T11:14:27.381Z,93825.31
2023-05-13T11:17:01.258Z,93819.41
2023-05-13T11:19:35.438Z,93826.47
2023-05-13T11:22:13.248Z,93826.06
2023-05-13T11:24:41.619Z,93825.28
2023-05-13T11:27:17.851Z,93821.91
2023-05-13T11:29:55.451Z,93814.31
2023-05-13T11:32:48.476Z,93820.53
2023-05-13T11:35:20.963Z,93806.94
2023-05-13T11:37:51.405Z,93803.44
2023-05-13T11:40:30.765Z,93795.44
2023-05-13T11:42:59.412Z,93787.81
2023-05-13T11:45:28.026Z,93789.59
2023-05-13T11:47:56.281Z,93787.44
2023-05-13T11:50:30.546Z,93789.56
2023-05-13T11:52:59.842Z,93783.53
2023-05-13T11:55:31.621Z,93783.25
2023-05-13T11:57:59.855Z,93780.63
2023-05-13T12:00:36.546Z,93788.22
2023-05-13T12:03:11.950Z,93786.34
2023-05-13T12:05:40.320Z,93783.53
2023-05-13T12:08:12.560Z,93785.03
2023-05-13T12:10:44.226Z,93780.94
2023-05-13T12:13:12.554Z,93791.31
2023-05-13T12:15:41.427Z,93787.97
2023-05-13T12:18:08.816Z,93777.81
2023-05-13T12:20:36.858Z,93777.94
2023-05-13T12:23:05.408Z,93772.97
2023-05-13T12:25:33.105Z,93777.81
2023-05-13T12:28:12.573Z,93781.22
2023-05-13T12:30:42.128Z,93777.22
2023-05-13T12:33:17.897Z,93780.78
2023-05-13T12:35:49.925Z,93771.09
2023-05-13T12:38:21.478Z,93774.56
2023-05-13T12:40:49.780Z,93769.72
2023-05-13T12:43:20.976Z,93765.25
2023-05-13T12:45:56.700Z,93759.34
2023-05-13T12:48:25.712Z,93761.19
2023-05-13T12:50:53.517Z,93759.06
2023-05-13T12:53:21.510Z,93758.94
2023-05-13T12:55:48.916Z,93751.56
2023-05-13T12:58:16.742Z,93756.22
2023-05-13T13:00:44.135Z,93744.66
2023-05-13T13:03:11.625Z,93754.59
2023-05-13T13:05:39.462Z,93755.50
2023-05-13T13:08:06.739Z,93755.59
2023-05-13T13:10:34.165Z,93750.78
2023-05-13T13:13:02.047Z,93753.63
2023-05-13T13:15:29.411Z,93747.69
2023-05-13T13:17:57.001Z,93745.59
2023-05-13T13:20:24.769Z,93744.47
2023-05-13T13:22:53.872Z,93743.59
2023-05-13T13:25:21.377Z,93740.94
2023-05-13T13:27:49.293Z,93746.84
2023-05-13T13:30:16.604Z,93740.66
2023-05-13T13:32:44.063Z,93730.50
2023-05-13T13:35:11.874Z,93730.66
2023-05-13T13:37:39.477Z,93732.97
2023-05-13T13:40:07.309Z,93732.59
2023-05-13T13:42:44.075Z,93727.44
2023-05-13T13:45:14.036Z,93729.34
2023-05-13T13:47:42.192Z,93737.03
2023-05-13T13:50:10.186Z,93722.16
2023-05-13T13:52:37.531Z,93726.81
2023-05-13T13:55:05.696Z,93725.34
2023-05-13T13:57:33.043Z,93725.28
2023-05-13T14:00:00.376Z,93729.59
2023-05-13T14:02:28.199Z,93731.13
2023-05-13T14:04:55.942Z,93733.19
2023-05-13T14:07:23.308Z,93731.47
2023-05-13T14:09:50.816Z,93742.78
2023-05-13T14:12:18.657Z,93739.19
2023-05-13T14:14:46.029Z,93738.28
2023-05-13T14:17:14.398Z,93739.94
2023-05-13T14:19:42.667Z,93740.94
2023-05-13T14:22:10.294Z,93743.37
2023-05-13T14:24:37.584Z,93743.00
2023-05-13T14:27:05.717Z,93736.13
2023-05-13T14:29:33.336Z,93740.31
2023-05-13T14:32:03.059Z,93740.50
2023-05-13T14:34:30.774Z,93748.00
2023-05-13T14:36:58.060Z,93742.25
2023-05-13T14:39:25.445Z,93744.63
2023-05-13T14:41:53.206Z,93746.38
2023-05-13T14:44:20.897Z,93738.13
2023-05-13T14:46:48.256Z,93736.03
2023-05-13T14:49:15.855Z,93733.63
2023-05-13T14:51:43.368Z,93733.91
2023-05-13T14:54:11.097Z,93730.19
2023-05-13T14:56:39.000Z,93727.44
2023-05-13T14:59:06.353Z,93726.59
2023-05-13T15:01:34.696Z,93724.34
2023-05-13T15:04:02.429Z,93729.69
2023-05-13T15:06:29.844Z,93727.84
2023-05-13T15:08:57.692Z,93740.03
2023-05-13T15:11:29.849Z,93738.88
2023-05-13T15:13:57.313Z,93740.94
2023-05-13T15:16:24.934Z,93746.59
2023-05-13T15:18:52.777Z,93746.22
2023-05-13T15:21:20.084Z,93752.81
2023-05-13T15:23:47.702Z,93747.41
2023-05-13T15:26:15.492Z,93744.94
2023-05-13T15:28:42.755Z,93744.69
2023-05-13T15:31:10.576Z,93742.13
2023-05-13T15:33:37.954Z,93739.41
2023-05-13T15:36:06.385Z,93745.81
2023-05-13T15:38:34.305Z,93747.09
2023-05-13T15:41:03.554Z,93736.22
2023-05-13T15:43:32.036Z,93737.53
2023-05-13T15:46:01.121Z,93745.78
2023-05-13T15:48:29.865Z,93748.59
2023-05-13T15:50:57.264Z,93759.97
2023-05-13T15:53:24.885Z,93748.72
2023-05-13T15:55:52.577Z,93757.69
2023-05-13T15:58:19.965Z,93752.16
2023-05-13T16:00:47.595Z,93755.84
2023-05-13T16:03:17.158Z,93757.47
2023-05-13T16:05:44.749Z,93757.47
2023-05-13T16:08:12.055Z,93757.25
2023-05-13T16:10:39.845Z,93765.69
2023-05-13T16:13:07.449Z,93762.53
2023-05-13T16:15:34.845Z,93766.22
2023-05-13T16:18:02.676Z,93759.91
2023-05-13T16:20:30.045Z,93764.94
2023-05-13T16:22:57.412Z,93767.31
2023-05-13T16:25:25.136Z,93774.72
2023-05-13T16:27:52.492Z,93782.91
2023-05-13T16:30:20.282Z,93798.22
2023-05-13T16:32:53.103Z,93794.50
2023-05-13T16:35:21.496Z,93794.72
2023-05-13T16:37:50.227Z,93790.47
2023-05-13T16:40:17.666Z,93792.34
2023-05-13T16:42:46.495Z,93791.50
2023-05-13T16:45:14.189Z,93792.34
2023-05-13T16:47:41.824Z,93790.75
2023-05-13T16:50:09.599Z,93792.31
2023-05-13T16:52:37.243Z,93802.28
2023-05-13T16:55:04.949Z,93808.25
2023-05-13T16:57:32.870Z,93811.16
2023-05-13T17:00:00.697Z,93816.28
2023-05-13T17:02:28.025Z,93817.63
2023-05-13T17:04:55.778Z,93816.31
2023-05-13T17:07:24.340Z,93818.94
2023-05-13T17:09:51.977Z,93821.03
2023-05-13T17:12:19.465Z,93828.56
2023-05-13T17:14:47.128Z,93825.81
2023-05-13T17:17:14.574Z,93822.88
2023-05-13T17:19:42.454Z,93813.31
2023-05-13T17:22:10.206Z,93823.28
2023-05-13T17:24:38.773Z,93821.38
2023-05-13T17:27:06.889Z,93826.56
2023-05-13T17:29:34.821Z,93822.09
2023-05-13T17:32:02.172Z,93819.47
2023-05-13T17:34:29.623Z,93826.69
2023-05-13T17:36:57.522Z,93823.22
2023-05-13T17:39:24.900Z,93825.81
2023-05-13T17:41:52.343Z,93828.28
2023-05-13T17:44:20.538Z,93828.78
2023-05-13T17:46:47.819Z,93826.94
2023-05-13T17:49:15.305Z,93839.38
2023-05-13T17:51:43.533Z,93839.44
2023-05-13T17:54:11.604Z,93832.94
2023-05-13T17:56:39.026Z,93836.84
2023-05-13T17:59:07.472Z,93831.41
2023-05-13T18:01:35.285Z,93835.97
2023-05-13T18:04:03.351Z,93831.91
2023-05-13T18:06:31.386Z,93831.41
2023-05-13T18:08:58.949Z,93832.41
2023-05-13T18:11:26.892Z,93836.28
2023-05-13T18:13:54.297Z,93844.56
2023-05-13T18:16:22.265Z,93844.56
2023-05-13T18:18:50.006Z,93843.53
2023-05-13T18:21:17.443Z,93846.12
2023-05-13T18:23:47.080Z,93846.88
2023-05-13T18:26:15.278Z,93843.16
2023-05-13T18:28:45.133Z,93842.75
2023-05-13T18:31:12.495Z,93848.72
2023-05-13T18:33:40.496Z,93841.59
2023-05-13T18:36:10.115Z,93851.41
2023-05-13T18:38:39.819Z,93845.72
2023-05-13T18:41:07.612Z,93838.56
2023-05-13T18:43:34.968Z,93832.44
2023-05-13T18:46:02.350Z,93835.41
2023-05-13T18:48:29.988Z,93834.31
2023-05-13T18:50:57.518Z,93838.28
2023-05-13T18:53:24.944Z,93830.00
2023-05-13T18:55:52.788Z,93828.66
2023-05-13T18:58:20.141Z,93833.53
2023-05-13T19:00:47.545Z,93831.81
2023-05-13T19:03:15.570Z,93827.81
2023-05-13T19:05:43.045Z,93834.28
2023-05-13T19:08:10.475Z,93830.78
2023-05-13T19:10:40.118Z,93831.88
2023-05-13T19:13:09.631Z,93826.50
2023-05-13T19:15:37.145Z,93840.41
2023-05-13T19:18:04.988Z,93832.44
2023-05-13T19:20:32.410Z,93829.88
2023-05-13T19:22:59.830Z,93830.91
2023-05-13T19:25:27.606Z,93832.19
2023-05-13T19:27:55.032Z,93832.94
2023-05-13T19:30:22.869Z,93839.88
2023-05-13T19:32:50.775Z,93848.34
2023-05-13T19:35:18.320Z,93861.28
2023-05-13T19:37:45.831Z,93862.38
2023-05-13T19:40:13.625Z,93859.00
2023-05-13T19:42:40.913Z,93869.09
2023-05-13T19:45:10.671Z,93858.16
2023-05-13T19:47:38.912Z,93866.75
2023-05-13T19:50:06.765Z,93856.47
2023-05-13T19:52:34.275Z,93867.28
2023-05-13T19:55:02.129Z,93858.06
2023-05-13T19:57:30.135Z,93852.41
2023-05-13T19:59:58.917Z,93858.41
2023-05-13T20:02:26.850Z,93853.44
2023-05-13T20:04:56.538Z,93863.09
2023-05-13T20:07:23.989Z,93850.97
2023-05-13T20:09:51.543Z,93861.97
2023-05-13T20:12:19.319Z,93852.09
2023-05-13T20:14:48.475Z,93861.00
2023-05-13T20:17:17.607Z,93857.25
2023-05-13T20:19:49.737Z,93860.25
2023-05-13T20:22:18.610Z,93864.84
2023-05-13T20:24:48.048Z,93856.03
2023-05-13T20:27:16.283Z,93860.97
2023-05-13T20:29:45.648Z,93858.50
2023-05-13T20:32:14.363Z,93857.81
2023-05-13T20:34:42.297Z,93857.97
2023-05-13T20:37:12.183Z,93853.50
2023-05-13T20:39:40.090Z,93855.75
2023-05-13T20:42:07.562Z,93856.72
2023-05-13T20:44:34.972Z,93862.19
2023-05-13T20:47:02.760Z,93850.63
2023-05-13T20:49:30.222Z,93846.72
2023-05-13T20:52:03.659Z,93842.44
2023-05-13T20:54:31.512Z,93842.13
2023-05-13T20:57:00.668Z,93843.31
2023-05-13T20:59:27.812Z,93840.13
2023-05-13T21:01:55.938Z,93836.06
2023-05-13T21:04:23.410Z,93842.97
2023-05-13T21:06:50.788Z,93844.84
2023-05-13T21:09:18.426Z,93845.09
2023-05-13T21:11:46.201Z,93848.97
2023-05-13T21:14:13.686Z,93840.28
2023-05-13T21:16:41.375Z,93842.50
2023-05-13T21:19:08.804Z,93840.13
2023-05-13T21:21:36.159Z,93842.22
2023-05-13T21:24:03.958Z,93838.69
2023-05-13T21:26:31.273Z,93844.75
2023-05-13T21:28:58.609Z,93844.84
2023-05-13T21:31:26.326Z,93846.19
2023-05-13T21:33:53.688Z,93861.31
2023-05-13T21:36:20.916Z,93856.53
2023-05-13T21:38:48.557Z,93862.91
2023-05-13T21:41:15.856Z,93861.62
2023-05-13T21:43:43.019Z,93862.81
2023-05-13T21:46:10.664Z,93853.19
2023-05-13T21:48:38.230Z,93863.06
2023-05-13T21:51:06.193Z,93866.88
2023-05-13T21:53:34.084Z,93867.38
2023-05-13T21:56:01.308Z,93869.78
2023-05-13T21:58:28.487Z,93865.44
2023-05-13T22:00:56.840Z,93865.16
2023-05-13T22:03:24.565Z,93864.03
2023-05-13T22:05:51.807Z,93864.81
2023-05-13T22:08:19.154Z,93858.69
2023-05-13T22:10:46.992Z,93862.34
2023-05-13T22:13:14.343Z,93861.53
2023-05-13T22:15:41.748Z,93854.78
2023-05-13T22:18:09.724Z,93848.56
2023-05-13T22:20:37.188Z,93851.34
2023-05-13T22:23:04.494Z,93852.63
2023-05-13T22:25:32.102Z,93851.34
2023-05-13T22:27:59.406Z,93844.19
2023-05-13T22:30:26.891Z,93849.03
2023-05-13T22:32:55.973Z,93844.75
2023-05-13T22:35:23.350Z,93834.78
2023-05-13T22:37:52.780Z,93838.12
2023-05-13T22:40:20.876Z,93837.66
2023-05-13T22:42:48.392Z,93829.53
2023-05-13T22:45:15.765Z,93841.41
2023-05-13T22:47:43.317Z,93834.78
2023-05-13T22:50:12.431Z,93837.66
2023-05-13T22:52:39.627Z,93839.50
2023-05-13T22:55:07.978Z,93845.38
2023-05-13T22:57:35.233Z,93846.50
2023-05-13T23:00:02.499Z,93840.13
2023-05-13T23:02:30.098Z,93840.34
2023-05-13T23:04:57.376Z,93843.63
2023-05-13T23:07:24.693Z,93835.91
2023-05-13T23:09:52.225Z,93836.13
2023-05-13T23:12:19.446Z,93834.84
2023-05-13T23:14:46.661Z,93842.81
2023-05-13T23:17:14.549Z,93844.88
2023-05-13T23:19:41.799Z,93839.00
2023-05-13T23:22:09.052Z,93833.41
2023-05-13T23:24:36.619Z,93838.34
2023-05-13T23:27:04.402Z,93839.03
2023-05-13T23:29:32.148Z,93833.22
2023-05-13T23:31:59.980Z,93834.91
2023-05-13T23:34:27.445Z,93824.41
2023-05-13T23:36:54.683Z,93826.78
2023-05-13T23:39:22.207Z,93819.47
2023-05-13T23:41:49.455Z,93821.75
2023-05-13T23:44:16.735Z,93818.38
2023-05-13T23:46:44.330Z,93824.97
2023-05-13T23:49:11.546Z,93822.50
2023-05-13T23:51:38.828Z,93823.44
2023-05-13T23:54:08.305Z,93818.97
2023-05-13T23:56:35.446Z,93822.47
2023-05-13T23:59:02.923Z,93812.66
